EKRK/RKE METAR and TAF weather

Enter ICAO airport designator
Station Type Date Time Source
EKRK METAR 2020/04/07 03:50 UTC NOAA

EKRK 070350Z AUTO 30010KT 9000 OVC091/// 09/07 Q1024


Station Type Date Time Source
EKRK Decoded METAR 2020/04/07 03:50 UTC NOAA

Koebenhavn / Roskilde, Denmark (EKRK) 55-35N 012-08E 44M
Apr 06, 2020 - 11:50 PM EDT / 2020.04.07 0350 UTC
Wind: from the WNW (300 degrees) at 12 MPH (10 KT):0
Visibility: 5 mile(s):0
Sky conditions: overcast
Temperature: 48 F (9 C)
Dew Point: 44 F (7 C)
Relative Humidity: 87%
Pressure (altimeter): 30.24 in. Hg (1024 hPa)
ob: EKRK 070350Z AUTO 30010KT 9000 OVC091/// 09/07 Q1024
cycle: 4

Station Type Date Time Source
EKRK TAF UTC NOAA

Error!

Example: see airport list